createdAt,value
2019-02-06T00:00:45.278Z,15.70
2019-02-06T00:03:52.453Z,19.00
2019-02-06T00:06:59.699Z,16.97
2019-02-06T00:10:07.301Z,18.77
2019-02-06T00:13:14.261Z,15.43
2019-02-06T00:16:21.641Z,10.95
2019-02-06T00:19:28.629Z,17.37
2019-02-06T00:22:35.664Z,13.00
2019-02-06T00:25:43.098Z,14.47
2019-02-06T00:28:50.113Z,12.13
2019-02-06T00:31:57.001Z,12.63
2019-02-06T00:35:04.950Z,14.40
2019-02-06T00:38:12.126Z,15.53
2019-02-06T00:41:21.884Z,16.27
2019-02-06T00:44:27.944Z,14.65
2019-02-06T00:47:34.865Z,10.60
2019-02-06T00:50:41.820Z,16.20
2019-02-06T00:53:48.756Z,15.08
2019-02-06T00:56:55.643Z,13.90
2019-02-06T01:00:02.689Z,12.90
2019-02-06T01:03:10.698Z,11.57
2019-02-06T01:06:17.576Z,14.70
2019-02-06T01:09:24.841Z,17.52
2019-02-06T01:12:31.735Z,15.80
2019-02-06T01:15:38.817Z,14.05
2019-02-06T01:18:45.723Z,13.55
2019-02-06T01:21:52.798Z,13.38
2019-02-06T01:24:59.723Z,14.47
2019-02-06T01:28:06.710Z,13.53
2019-02-06T01:31:21.468Z,14.63
2019-02-06T01:34:28.497Z,11.78
2019-02-06T01:37:36.540Z,13.55
2019-02-06T01:40:43.492Z,11.78
2019-02-06T01:43:50.409Z,11.85
2019-02-06T01:46:57.439Z,13.60
2019-02-06T01:50:06.073Z,14.47
2019-02-06T01:53:13.435Z,15.98
2019-02-06T01:56:22.006Z,11.78
2019-02-06T01:59:28.958Z,12.55
2019-02-06T02:02:35.984Z,17.60
2019-02-06T02:05:43.133Z,16.73
2019-02-06T02:08:57.538Z,11.57
2019-02-06T02:12:04.737Z,10.90
2019-02-06T02:15:14.854Z,11.88
2019-02-06T02:18:25.136Z,12.33
2019-02-06T02:21:32.284Z,12.18
2019-02-06T02:24:40.991Z,13.85
2019-02-06T02:27:48.295Z,12.37
2019-02-06T02:30:56.856Z,13.90
2019-02-06T02:34:03.758Z,10.78
2019-02-06T02:37:10.979Z,16.07
2019-02-06T02:40:20.134Z,12.55
2019-02-06T02:43:27.155Z,12.07
2019-02-06T02:46:34.276Z,11.68
2019-02-06T02:49:41.287Z,12.28
2019-02-06T02:52:48.329Z,9.08
2019-02-06T02:55:55.300Z,9.20
2019-02-06T02:59:02.249Z,13.32
2019-02-06T03:02:29.123Z,12.37
2019-02-06T03:05:37.142Z,8.93
2019-02-06T03:08:44.115Z,12.82
2019-02-06T03:11:51.076Z,9.48
2019-02-06T03:14:58.060Z,8.88
2019-02-06T03:18:05.046Z,8.93
2019-02-06T03:21:12.364Z,9.93
2019-02-06T03:24:19.829Z,9.65
2019-02-06T03:27:26.830Z,10.68
2019-02-06T03:30:33.775Z,10.15
2019-02-06T03:33:40.726Z,11.48
2019-02-06T03:36:47.798Z,12.80
2019-02-06T03:39:54.770Z,12.20
2019-02-06T03:43:02.115Z,14.18
2019-02-06T03:46:09.358Z,9.25
2019-02-06T03:49:16.321Z,10.72
2019-02-06T03:52:26.390Z,9.40
2019-02-06T03:55:33.308Z,12.95
2019-02-06T03:58:40.422Z,12.07
2019-02-06T04:01:47.429Z,11.40
2019-02-06T04:04:55.495Z,10.40
2019-02-06T04:08:02.397Z,12.20
2019-02-06T04:11:09.544Z,11.18
2019-02-06T04:14:16.893Z,11.43
2019-02-06T04:17:23.937Z,13.22
2019-02-06T04:20:31.056Z,9.73
2019-02-06T04:23:40.396Z,9.70
2019-02-06T04:26:47.295Z,8.75
2019-02-06T04:29:55.558Z,11.05
2019-02-06T04:33:02.825Z,11.83
2019-02-06T04:36:09.841Z,10.93
2019-02-06T04:39:19.771Z,10.68
2019-02-06T04:42:27.333Z,13.65
2019-02-06T04:45:34.642Z,10.48
2019-02-06T04:48:41.608Z,10.18
2019-02-06T04:51:48.583Z,10.60
2019-02-06T04:54:55.874Z,10.45
2019-02-06T04:58:02.823Z,8.50
2019-02-06T05:01:09.743Z,7.72
2019-02-06T05:04:16.687Z,8.10
2019-02-06T05:07:23.853Z,9.25
2019-02-06T05:10:30.747Z,10.78
2019-02-06T05:13:38.238Z,10.93
2019-02-06T05:16:45.172Z,10.25
2019-02-06T05:19:52.296Z,8.08
2019-02-06T05:22:59.399Z,8.28
2019-02-06T05:26:06.881Z,10.03
2019-02-06T05:29:13.756Z,10.13
2019-02-06T05:32:20.783Z,10.18
2019-02-06T05:35:27.713Z,9.80
2019-02-06T05:38:35.336Z,9.88
2019-02-06T05:41:42.760Z,7.03
2019-02-06T05:44:49.909Z,8.73
2019-02-06T05:47:58.484Z,8.93
2019-02-06T05:51:05.600Z,8.75
2019-02-06T05:54:12.577Z,8.80
2019-02-06T05:57:19.730Z,9.58
2019-02-06T06:00:33.320Z,9.95
2019-02-06T06:03:40.332Z,7.42
2019-02-06T06:06:47.329Z,6.97
2019-02-06T06:09:55.221Z,7.05
2019-02-06T06:13:02.206Z,7.55
2019-02-06T06:16:09.602Z,8.80
2019-02-06T06:19:16.571Z,8.73
2019-02-06T06:22:24.632Z,8.80
2019-02-06T06:25:31.621Z,11.88
2019-02-06T06:28:38.532Z,8.20
2019-02-06T06:31:45.777Z,9.15
2019-02-06T06:34:52.965Z,7.37
2019-02-06T06:38:02.554Z,8.30
2019-02-06T06:41:08.782Z,8.03
2019-02-06T06:44:16.469Z,9.23
2019-02-06T06:47:23.475Z,8.20
2019-02-06T06:50:30.631Z,10.20
2019-02-06T06:53:37.566Z,8.55
2019-02-06T06:56:44.499Z,7.80
2019-02-06T06:59:51.611Z,7.33
2019-02-06T07:02:59.376Z,7.00
2019-02-06T07:06:06.486Z,8.83
2019-02-06T07:09:16.708Z,5.90
2019-02-06T07:12:23.695Z,9.93
2019-02-06T07:15:33.786Z,7.65
2019-02-06T07:18:40.653Z,7.30
2019-02-06T07:21:47.617Z,6.70
2019-02-06T07:24:54.586Z,7.60
2019-02-06T07:28:01.517Z,7.20
2019-02-06T07:31:08.653Z,7.97
2019-02-06T07:34:15.973Z,6.25
2019-02-06T07:37:22.881Z,9.98
2019-02-06T07:40:29.855Z,6.30
2019-02-06T07:43:36.771Z,6.72
2019-02-06T07:46:45.039Z,5.72
2019-02-06T07:49:52.084Z,7.33
2019-02-06T07:52:59.313Z,7.90
2019-02-06T07:56:06.368Z,7.85
2019-02-06T07:59:13.237Z,7.40
2019-02-06T08:02:22.471Z,5.87
2019-02-06T08:05:29.468Z,8.50
2019-02-06T08:08:36.800Z,7.10
2019-02-06T08:11:43.718Z,5.08
2019-02-06T08:14:50.631Z,7.85
2019-02-06T08:17:57.634Z,8.93
2019-02-06T08:21:04.638Z,5.92
2019-02-06T08:24:11.612Z,4.28
2019-02-06T08:27:18.541Z,7.80
2019-02-06T08:30:36.826Z,6.55
2019-02-06T08:33:44.967Z,6.22
2019-02-06T08:36:53.019Z,7.58
2019-02-06T08:39:59.958Z,4.90
2019-02-06T08:43:07.217Z,5.42
2019-02-06T08:46:14.192Z,5.72
2019-02-06T08:49:21.384Z,5.08
2019-02-06T08:52:29.385Z,5.45
2019-02-06T08:55:38.566Z,6.67
2019-02-06T08:58:45.476Z,7.37
2019-02-06T09:01:52.352Z,7.35
2019-02-06T09:04:59.449Z,4.78
2019-02-06T09:08:07.156Z,5.95
2019-02-06T09:11:14.060Z,6.85
2019-02-06T09:14:22.331Z,6.60
2019-02-06T09:17:32.772Z,6.87
2019-02-06T09:20:39.681Z,6.65
2019-02-06T09:23:46.707Z,7.20
2019-02-06T09:26:55.320Z,6.17
2019-02-06T09:30:02.226Z,6.20
2019-02-06T09:33:09.149Z,5.05
2019-02-06T09:36:16.238Z,8.55
2019-02-06T09:39:23.260Z,6.90
2019-02-06T09:42:32.071Z,5.28
2019-02-06T09:45:38.947Z,7.20
2019-02-06T09:48:46.096Z,6.25
2019-02-06T09:51:54.063Z,5.42
2019-02-06T09:55:01.164Z,5.25
2019-02-06T09:58:09.347Z,5.15
2019-02-06T10:01:17.379Z,5.67
2019-02-06T10:04:24.336Z,6.72
2019-02-06T10:07:31.750Z,5.72
2019-02-06T10:10:39.239Z,5.05
2019-02-06T10:13:47.631Z,5.80
2019-02-06T10:16:54.722Z,6.47
2019-02-06T10:20:02.854Z,6.62
2019-02-06T10:23:12.279Z,4.33
2019-02-06T10:26:19.564Z,6.85
2019-02-06T10:29:26.510Z,6.37
2019-02-06T10:32:33.472Z,3.52
2019-02-06T10:35:42.177Z,4.70
2019-02-06T10:38:51.520Z,5.95
2019-02-06T10:41:58.460Z,4.60
2019-02-06T10:45:10.249Z,6.58
2019-02-06T10:48:18.332Z,6.10
2019-02-06T10:51:25.459Z,5.47
2019-02-06T10:54:32.513Z,6.30
2019-02-06T10:57:39.426Z,6.30
2019-02-06T11:00:53.694Z,4.17
2019-02-06T11:04:00.685Z,5.15
2019-02-06T11:07:08.292Z,3.47
2019-02-06T11:10:16.466Z,6.58
2019-02-06T11:13:23.659Z,17.10
2019-02-06T11:16:30.589Z,17.82
2019-02-06T11:19:38.359Z,6.55
2019-02-06T11:22:45.387Z,5.97
2019-02-06T11:25:52.472Z,5.55
2019-02-06T11:28:59.452Z,15.83
2019-02-06T11:32:06.601Z,8.05
2019-02-06T11:35:14.652Z,6.20
2019-02-06T11:38:21.687Z,9.05
2019-02-06T11:41:29.226Z,4.35
2019-02-06T11:44:37.545Z,3.98
2019-02-06T11:47:44.594Z,3.40
2019-02-06T11:50:51.583Z,3.45
2019-02-06T11:53:58.497Z,3.95
2019-02-06T11:57:08.364Z,4.22
2019-02-06T12:00:23.744Z,3.10
2019-02-06T12:03:31.328Z,3.62
2019-02-06T12:06:38.340Z,3.65
2019-02-06T12:09:45.381Z,3.33
2019-02-06T12:12:52.406Z,3.67
2019-02-06T12:16:01.542Z,3.37
2019-02-06T12:19:08.634Z,2.40
2019-02-06T12:22:15.601Z,4.67
2019-02-06T12:25:22.901Z,2.42
2019-02-06T12:28:29.845Z,4.08
2019-02-06T12:31:36.899Z,3.20
2019-02-06T12:34:44.134Z,3.50
2019-02-06T12:37:51.045Z,4.95
2019-02-06T12:40:58.727Z,4.62
2019-02-06T12:44:05.884Z,3.65
2019-02-06T12:47:12.776Z,3.50
2019-02-06T12:50:23.096Z,4.90
2019-02-06T12:53:30.039Z,8.18
2019-02-06T12:56:37.875Z,5.65
2019-02-06T12:59:44.934Z,5.30
2019-02-06T13:02:52.328Z,2.35
2019-02-06T13:05:59.714Z,3.00
2019-02-06T13:09:10.659Z,2.33
2019-02-06T13:12:17.685Z,2.67
2019-02-06T13:15:24.740Z,3.52
2019-02-06T13:18:32.088Z,2.95
2019-02-06T13:21:39.138Z,3.00
2019-02-06T13:24:46.121Z,2.98
2019-02-06T13:27:53.248Z,3.45
2019-02-06T13:31:01.470Z,3.98
2019-02-06T13:34:08.465Z,5.80
2019-02-06T13:37:15.425Z,3.45
2019-02-06T13:40:24.607Z,2.92
2019-02-06T13:43:32.546Z,7.72
2019-02-06T13:46:39.385Z,6.05
2019-02-06T13:49:46.954Z,4.00
2019-02-06T13:52:54.447Z,5.15
2019-02-06T13:56:01.521Z,11.55
2019-02-06T13:59:08.746Z,6.00
2019-02-06T14:02:15.694Z,7.90
2019-02-06T14:05:26.866Z,6.22
2019-02-06T14:08:34.583Z,6.12
2019-02-06T14:11:41.519Z,3.47
2019-02-06T14:14:48.751Z,3.30
2019-02-06T14:17:55.776Z,2.87
2019-02-06T14:21:02.726Z,2.85
2019-02-06T14:24:40.162Z,3.25
2019-02-06T14:29:03.679Z,4.47
2019-02-06T14:32:51.105Z,3.40
2019-02-06T14:37:19.217Z,3.40
2019-02-06T14:41:23.065Z,3.20
2019-02-06T14:45:17.907Z,4.80
2019-02-06T14:49:33.389Z,9.13
2019-02-06T14:53:39.632Z,8.68
2019-02-06T14:57:10.519Z,4.62
2019-02-06T15:00:59.274Z,5.08
2019-02-06T15:04:51.718Z,4.78
2019-02-06T15:08:56.645Z,6.28
2019-02-06T15:13:03.152Z,4.05
2019-02-06T15:17:03.089Z,3.70
2019-02-06T15:20:52.476Z,3.33
2019-02-06T15:25:06.279Z,4.25
2019-02-06T15:29:18.671Z,3.27
2019-02-06T15:33:20.901Z,8.80
2019-02-06T15:36:49.295Z,11.10
2019-02-06T15:40:40.410Z,7.47
2019-02-06T15:44:07.414Z,6.22
2019-02-06T15:47:51.939Z,4.15
2019-02-06T15:51:41.875Z,4.92
2019-02-06T15:56:17.659Z,5.53
2019-02-06T16:00:09.051Z,4.10
2019-02-06T16:04:15.903Z,4.15
2019-02-06T16:07:58.758Z,3.80
2019-02-06T16:11:51.693Z,3.60
2019-02-06T16:16:04.152Z,3.15
2019-02-06T16:20:05.189Z,3.42
2019-02-06T16:24:03.205Z,4.05
2019-02-06T16:27:26.196Z,2.92
2019-02-06T16:31:18.460Z,3.98
2019-02-06T16:35:36.397Z,3.72
2019-02-06T16:39:07.268Z,4.00
2019-02-06T16:43:04.425Z,3.42
2019-02-06T16:46:53.330Z,2.77
2019-02-06T16:50:37.845Z,3.15
2019-02-06T16:54:52.520Z,3.60
2019-02-06T16:59:05.456Z,5.10
2019-02-06T17:03:29.552Z,10.48
2019-02-06T17:07:28.524Z,6.12
2019-02-06T17:11:05.268Z,3.75
2019-02-06T17:15:28.907Z,4.10
2019-02-06T17:19:26.822Z,4.97
2019-02-06T17:23:14.633Z,5.33
2019-02-06T17:26:48.842Z,3.55
2019-02-06T17:30:45.396Z,6.08
2019-02-06T17:34:47.619Z,5.00
2019-02-06T17:39:11.804Z,5.60
2019-02-06T17:43:31.075Z,7.45
2019-02-06T17:47:43.698Z,5.85
2019-02-06T17:51:48.447Z,6.33
2019-02-06T17:55:22.233Z,6.35
2019-02-06T17:58:36.207Z,5.45
2019-02-06T18:01:55.401Z,10.10
2019-02-06T18:05:02.343Z,7.58
2019-02-06T18:08:09.591Z,7.78
2019-02-06T18:11:16.817Z,5.67
2019-02-06T18:14:23.990Z,5.60
2019-02-06T18:17:31.327Z,5.72
2019-02-06T18:20:38.354Z,7.05
2019-02-06T18:23:46.475Z,7.22
2019-02-06T18:26:53.886Z,6.95
2019-02-06T18:30:01.080Z,6.17
2019-02-06T18:33:08.365Z,5.90
2019-02-06T18:36:15.367Z,7.80
2019-02-06T18:39:22.490Z,5.20
2019-02-06T18:42:36.856Z,7.95
2019-02-06T18:45:38.196Z,4.95
2019-02-06T18:48:45.297Z,8.63
2019-02-06T18:51:52.577Z,7.03
2019-02-06T18:55:00.951Z,5.72
2019-02-06T18:58:11.214Z,5.28
2019-02-06T19:01:18.819Z,4.60
2019-02-06T19:04:36.384Z,3.98
2019-02-06T19:07:43.843Z,4.53
2019-02-06T19:10:50.875Z,5.50
2019-02-06T19:13:58.456Z,3.27
2019-02-06T19:17:07.766Z,2.47
2019-02-06T19:20:16.804Z,4.25
2019-02-06T19:23:23.692Z,4.05
2019-02-06T19:26:32.350Z,4.30
2019-02-06T19:29:40.964Z,5.60
2019-02-06T19:32:50.098Z,5.40
2019-02-06T19:35:58.227Z,5.35
2019-02-06T19:39:08.937Z,4.65
2019-02-06T19:42:16.013Z,3.92
2019-02-06T19:45:23.025Z,4.95
2019-02-06T19:48:30.145Z,4.67
2019-02-06T19:51:37.250Z,5.62
2019-02-06T19:54:46.188Z,4.17
2019-02-06T19:57:53.374Z,4.37
2019-02-06T20:01:00.564Z,3.87
2019-02-06T20:04:07.582Z,9.95
2019-02-06T20:07:14.937Z,9.35
2019-02-06T20:10:26.155Z,9.98
2019-02-06T20:13:33.198Z,10.63
2019-02-06T20:16:43.173Z,7.80
2019-02-06T20:19:51.664Z,9.73
2019-02-06T20:22:59.414Z,16.15
2019-02-06T20:26:06.564Z,7.78
2019-02-06T20:29:13.696Z,6.42
2019-02-06T20:32:20.768Z,8.45
2019-02-06T20:35:27.983Z,7.20
2019-02-06T20:38:35.800Z,7.30
2019-02-06T20:41:42.768Z,4.62
2019-02-06T20:44:49.839Z,5.47
2019-02-06T20:47:56.993Z,5.28
2019-02-06T20:51:04.142Z,6.00
2019-02-06T20:54:11.178Z,4.78
2019-02-06T20:57:18.526Z,7.15
2019-02-06T21:00:37.698Z,6.15
2019-02-06T21:03:44.731Z,5.97
2019-02-06T21:06:51.766Z,2.80
2019-02-06T21:09:58.659Z,4.47
2019-02-06T21:13:07.072Z,3.33
2019-02-06T21:16:14.361Z,5.58
2019-02-06T21:19:21.274Z,4.80
2019-02-06T21:22:28.674Z,5.35
2019-02-06T21:25:35.838Z,3.67
2019-02-06T21:28:42.869Z,4.78
2019-02-06T21:31:50.111Z,4.03
2019-02-06T21:34:57.073Z,4.22
2019-02-06T21:38:06.999Z,2.72
2019-02-06T21:41:16.851Z,3.10
2019-02-06T21:44:26.828Z,3.50
2019-02-06T21:47:33.782Z,2.02
2019-02-06T21:50:40.905Z,3.50
2019-02-06T21:53:49.034Z,3.45
2019-02-06T21:56:56.137Z,3.02
2019-02-06T22:00:07.612Z,2.83
2019-02-06T22:03:14.982Z,2.75
2019-02-06T22:06:22.036Z,2.15
2019-02-06T22:09:29.087Z,2.00
2019-02-06T22:12:36.206Z,2.58
2019-02-06T22:15:43.226Z,2.45
2019-02-06T22:18:50.521Z,2.70
2019-02-06T22:21:57.515Z,2.35
2019-02-06T22:25:05.021Z,2.10
2019-02-06T22:28:12.320Z,3.08
2019-02-06T22:31:19.302Z,3.15
2019-02-06T22:34:26.578Z,2.95
2019-02-06T22:37:34.679Z,2.87
2019-02-06T22:40:41.781Z,2.95
2019-02-06T22:43:49.502Z,2.45
2019-02-06T22:46:56.480Z,2.62
2019-02-06T22:50:05.680Z,2.42
2019-02-06T22:53:13.029Z,2.60
2019-02-06T22:56:20.248Z,3.00
2019-02-06T22:59:27.398Z,2.55
2019-02-06T23:02:34.637Z,3.58
2019-02-06T23:05:41.885Z,3.87
2019-02-06T23:08:49.036Z,3.77
2019-02-06T23:11:56.106Z,4.72
2019-02-06T23:15:03.372Z,3.70
2019-02-06T23:18:10.511Z,3.50
2019-02-06T23:21:17.484Z,4.08
2019-02-06T23:24:25.093Z,3.65
2019-02-06T23:27:32.484Z,2.70
2019-02-06T23:30:39.961Z,3.72
2019-02-06T23:33:46.935Z,3.85
2019-02-06T23:36:55.677Z,3.20
2019-02-06T23:40:02.641Z,3.85
2019-02-06T23:43:09.879Z,1.90
2019-02-06T23:46:16.912Z,2.37
2019-02-06T23:49:24.072Z,2.30
2019-02-06T23:52:31.422Z,2.62
2019-02-06T23:55:38.524Z,2.50
2019-02-06T23:58:45.564Z,3.27
